createdAt,value
2023-05-29T00:00:48.288Z,14.17
2023-05-29T00:05:55.483Z,14.17
2023-05-29T00:10:59.148Z,14.23
2023-05-29T00:16:02.136Z,14.27
2023-05-29T00:21:07.876Z,14.33
2023-05-29T00:26:10.173Z,14.36
2023-05-29T00:31:14.069Z,14.36
2023-05-29T00:36:16.228Z,14.42
2023-05-29T00:41:18.468Z,14.43
2023-05-29T00:46:21.822Z,14.38
2023-05-29T00:51:24.089Z,14.44
2023-05-29T00:56:27.363Z,14.46
2023-05-29T01:01:30.406Z,14.49
2023-05-29T01:06:43.169Z,14.52
2023-05-29T01:11:58.930Z,14.46
2023-05-29T01:17:07.617Z,14.52
2023-05-29T01:22:12.134Z,14.52
2023-05-29T01:27:19.151Z,14.39
2023-05-29T01:32:22.642Z,14.46
2023-05-29T01:37:25.020Z,14.46
2023-05-29T01:42:28.867Z,14.36
2023-05-29T01:47:31.407Z,14.38
2023-05-29T01:52:36.524Z,14.33
2023-05-29T01:57:38.823Z,14.25
2023-05-29T02:02:41.544Z,14.23
2023-05-29T02:07:44.164Z,14.27
2023-05-29T02:12:46.532Z,14.21
2023-05-29T02:17:48.469Z,14.17
2023-05-29T02:22:50.698Z,14.17
2023-05-29T02:27:54.379Z,14.10
2023-05-29T02:32:58.751Z,14.06
2023-05-29T02:38:01.759Z,14.04
2023-05-29T02:43:08.230Z,13.99
2023-05-29T02:48:10.603Z,14.00
2023-05-29T02:53:13.060Z,14.02
2023-05-29T02:58:17.588Z,14.02
2023-05-29T03:03:19.756Z,13.93
2023-05-29T03:08:21.957Z,13.98
2023-05-29T03:13:23.815Z,13.98
2023-05-29T03:18:32.558Z,14.10
2023-05-29T03:23:36.049Z,14.00
2023-05-29T03:28:39.487Z,14.11
2023-05-29T03:33:44.098Z,14.09
2023-05-29T03:38:53.195Z,14.12
2023-05-29T03:43:56.192Z,14.05
2023-05-29T03:49:01.266Z,14.02
2023-05-29T03:54:03.534Z,14.05
2023-05-29T03:59:05.873Z,13.95
2023-05-29T04:04:08.495Z,13.86
2023-05-29T04:09:10.690Z,13.88
2023-05-29T04:14:12.756Z,13.76
2023-05-29T04:19:14.882Z,13.87
2023-05-29T04:24:17.788Z,13.81
2023-05-29T04:29:20.593Z,13.69
2023-05-29T04:34:23.149Z,13.72
2023-05-29T04:39:26.415Z,13.67
2023-05-29T04:44:31.477Z,13.68
2023-05-29T04:49:34.736Z,13.60
2023-05-29T04:54:36.753Z,13.64
2023-05-29T04:59:38.992Z,13.69
2023-05-29T05:04:41.700Z,13.77
2023-05-29T05:09:44.058Z,13.83
2023-05-29T05:14:53.629Z,13.90
2023-05-29T05:19:55.909Z,13.90
2023-05-29T05:24:59.068Z,14.04
2023-05-29T05:30:02.848Z,14.05
2023-05-29T05:35:12.600Z,14.07
2023-05-29T05:40:19.765Z,14.08
2023-05-29T05:45:39.625Z,14.03
2023-05-29T05:50:45.064Z,14.07
2023-05-29T05:55:47.256Z,14.09
2023-05-29T06:00:50.093Z,14.17
2023-05-29T06:05:55.604Z,14.27
2023-05-29T06:11:02.648Z,14.35
2023-05-29T06:16:09.331Z,14.42
2023-05-29T06:21:13.715Z,14.58
2023-05-29T06:26:22.982Z,14.73
2023-05-29T06:31:25.736Z,14.87
2023-05-29T06:36:27.840Z,15.06
2023-05-29T06:41:30.554Z,15.10
2023-05-29T06:46:32.552Z,15.15
2023-05-29T06:51:35.240Z,15.19
2023-05-29T06:56:40.297Z,15.43
2023-05-29T07:01:42.249Z,15.66
2023-05-29T07:06:44.455Z,15.77
2023-05-29T07:11:46.611Z,15.87
2023-05-29T07:16:48.593Z,15.96
2023-05-29T07:21:52.035Z,16.10
2023-05-29T07:26:56.621Z,16.31
2023-05-29T07:32:02.443Z,16.35
2023-05-29T07:37:13.515Z,16.57
2023-05-29T07:42:16.857Z,16.66
2023-05-29T07:47:19.035Z,16.73
2023-05-29T07:52:24.139Z,16.83
2023-05-29T07:57:30.052Z,17.01
2023-05-29T08:02:34.488Z,17.13
2023-05-29T08:07:56.605Z,17.26
2023-05-29T08:12:58.563Z,17.55
2023-05-29T08:18:02.546Z,17.87
2023-05-29T08:23:04.616Z,17.61
2023-05-29T08:28:06.519Z,17.56
2023-05-29T08:33:08.457Z,17.78
2023-05-29T08:38:11.154Z,18.59
2023-05-29T08:43:22.683Z,19.78
2023-05-29T08:48:28.331Z,19.31
2023-05-29T08:53:31.322Z,19.46
2023-05-29T08:58:33.522Z,19.55
2023-05-29T09:03:35.864Z,19.40
2023-05-29T09:08:38.367Z,20.41
2023-05-29T09:13:40.997Z,20.37
2023-05-29T09:18:46.993Z,20.13
2023-05-29T09:23:53.616Z,19.64
2023-05-29T09:28:57.017Z,19.89
2023-05-29T09:34:04.086Z,19.71
2023-05-29T09:39:17.636Z,19.96
2023-05-29T09:44:21.840Z,19.84
2023-05-29T09:49:24.495Z,21.01
2023-05-29T09:54:31.186Z,21.79
2023-05-29T09:59:33.808Z,23.17
2023-05-29T10:04:36.381Z,24.09
2023-05-29T10:09:43.147Z,23.72
2023-05-29T10:14:45.907Z,24.25
2023-05-29T10:19:48.240Z,24.85
2023-05-29T10:24:50.160Z,24.68
2023-05-29T10:30:06.543Z,23.27
2023-05-29T10:35:17.762Z,22.35
2023-05-29T10:40:26.855Z,21.91
2023-05-29T10:45:36.250Z,21.86
2023-05-29T10:50:42.980Z,22.64
2023-05-29T10:55:46.501Z,23.68
2023-05-29T11:00:48.879Z,23.82
2023-05-29T11:06:07.399Z,23.31
2023-05-29T11:11:13.408Z,23.71
2023-05-29T11:16:20.538Z,24.51
2023-05-29T11:21:47.558Z,24.34
2023-05-29T11:26:50.465Z,23.73
2023-05-29T11:32:06.600Z,24.58
2023-05-29T11:37:08.681Z,24.58
2023-05-29T11:42:10.903Z,23.85
2023-05-29T11:47:15.967Z,23.67
2023-05-29T11:52:18.403Z,24.26
2023-05-29T11:57:21.808Z,23.96
2023-05-29T12:02:26.348Z,23.86
2023-05-29T12:07:28.453Z,24.30
2023-05-29T12:12:30.858Z,24.60
2023-05-29T12:17:33.310Z,24.30
2023-05-29T12:22:36.856Z,23.73
2023-05-29T12:27:44.069Z,23.25
2023-05-29T12:32:51.872Z,22.95
2023-05-29T12:38:03.534Z,22.70
2023-05-29T12:43:08.406Z,22.86
2023-05-29T12:48:12.289Z,22.61
2023-05-29T12:53:16.101Z,22.80
2023-05-29T12:58:18.212Z,22.63
2023-05-29T13:03:21.890Z,22.94
2023-05-29T13:08:24.115Z,22.72
2023-05-29T13:13:26.146Z,22.90
2023-05-29T13:18:28.066Z,22.81
2023-05-29T13:23:29.941Z,22.71
2023-05-29T13:28:32.172Z,22.67
2023-05-29T13:33:34.117Z,22.68
2023-05-29T13:38:36.045Z,22.84
2023-05-29T13:43:44.494Z,22.88
2023-05-29T13:48:47.114Z,22.82
2023-05-29T13:53:49.033Z,22.88
2023-05-29T13:58:51.325Z,22.96
2023-05-29T14:03:53.516Z,23.07
2023-05-29T14:08:57.295Z,23.10
2023-05-29T14:13:59.309Z,23.05
2023-05-29T14:19:02.230Z,23.03
2023-05-29T14:24:04.338Z,23.04
2023-05-29T14:29:14.145Z,23.21
2023-05-29T14:34:17.229Z,23.17
2023-05-29T14:39:19.321Z,22.77
2023-05-29T14:44:21.545Z,22.84
2023-05-29T14:49:24.703Z,22.78
2023-05-29T14:54:27.339Z,23.06
2023-05-29T14:59:29.296Z,22.99
2023-05-29T15:04:31.274Z,23.04
2023-05-29T15:09:33.291Z,22.92
2023-05-29T15:14:38.751Z,22.76
2023-05-29T15:19:40.734Z,22.96
2023-05-29T15:24:42.744Z,23.27
2023-05-29T15:29:44.710Z,23.28
2023-05-29T15:34:46.665Z,23.27
2023-05-29T15:39:48.696Z,23.37
2023-05-29T15:44:51.057Z,23.50
2023-05-29T15:49:53.139Z,23.43
2023-05-29T15:54:55.081Z,23.28
2023-05-29T15:59:57.145Z,23.11
2023-05-29T16:05:06.628Z,23.01
2023-05-29T16:10:09.759Z,22.77
2023-05-29T16:15:11.862Z,22.54
2023-05-29T16:20:14.656Z,22.18
2023-05-29T16:25:16.889Z,21.03
2023-05-29T16:30:18.915Z,19.64
2023-05-29T16:35:20.959Z,16.75
2023-05-29T16:40:24.415Z,15.60
2023-05-29T16:45:27.274Z,15.23
2023-05-29T16:50:29.340Z,15.25
2023-05-29T16:55:31.752Z,15.54
2023-05-29T17:00:33.984Z,15.24
2023-05-29T17:05:35.975Z,15.10
2023-05-29T17:10:40.498Z,15.04
2023-05-29T17:15:42.500Z,15.17
2023-05-29T17:20:45.098Z,15.19
2023-05-29T17:25:47.120Z,15.26
2023-05-29T17:30:49.200Z,15.13
2023-05-29T17:35:51.304Z,15.02
2023-05-29T17:40:53.429Z,15.00
2023-05-29T17:45:57.052Z,15.00
2023-05-29T17:50:59.167Z,15.18
2023-05-29T17:56:03.149Z,15.04
2023-05-29T18:01:05.740Z,15.24
2023-05-29T18:06:07.869Z,15.32
2023-05-29T18:11:09.815Z,15.29
2023-05-29T18:16:12.070Z,15.23
2023-05-29T18:21:14.363Z,15.08
2023-05-29T18:26:16.462Z,15.16
2023-05-29T18:31:20.214Z,14.96
2023-05-29T18:36:22.187Z,15.07
2023-05-29T18:41:24.821Z,15.13
2023-05-29T18:46:27.506Z,15.19
2023-05-29T18:51:29.726Z,15.09
2023-05-29T18:56:31.712Z,14.91
2023-05-29T19:01:35.480Z,14.83
2023-05-29T19:06:38.804Z,14.93
2023-05-29T19:11:40.811Z,14.78
2023-05-29T19:16:42.844Z,14.85
2023-05-29T19:21:44.986Z,14.75
2023-05-29T19:26:48.179Z,14.67
2023-05-29T19:31:50.536Z,14.68
2023-05-29T19:36:53.793Z,14.71
2023-05-29T19:41:55.894Z,14.53
2023-05-29T19:46:58.155Z,14.39
2023-05-29T19:52:00.389Z,14.33
2023-05-29T19:57:03.774Z,14.39
2023-05-29T20:02:06.926Z,14.37
2023-05-29T20:07:08.939Z,14.36
2023-05-29T20:12:11.026Z,14.32
2023-05-29T20:17:13.064Z,14.25
2023-05-29T20:22:15.059Z,14.30
2023-05-29T20:27:17.103Z,14.24
2023-05-29T20:32:19.262Z,14.18
2023-05-29T20:37:24.336Z,14.18
2023-05-29T20:42:26.404Z,14.26
2023-05-29T20:47:29.364Z,14.24
2023-05-29T20:52:31.477Z,14.20
2023-05-29T20:57:36.447Z,14.23
2023-05-29T21:02:38.560Z,14.17
2023-05-29T21:07:42.509Z,14.15
2023-05-29T21:12:48.501Z,14.16
2023-05-29T21:17:50.965Z,14.17
2023-05-29T21:22:52.978Z,14.18
2023-05-29T21:27:55.567Z,14.27
2023-05-29T21:32:57.834Z,14.23
2023-05-29T21:38:01.599Z,14.26
2023-05-29T21:43:03.814Z,14.29
2023-05-29T21:48:05.881Z,14.35
2023-05-29T21:53:08.564Z,14.35
2023-05-29T21:58:10.702Z,14.35
2023-05-29T22:03:13.078Z,14.36
2023-05-29T22:08:15.174Z,14.31
2023-05-29T22:13:17.288Z,14.18
2023-05-29T22:18:19.936Z,14.26
2023-05-29T22:23:23.382Z,14.31
2023-05-29T22:28:25.332Z,14.31
2023-05-29T22:33:28.649Z,14.25
2023-05-29T22:38:30.570Z,14.26
2023-05-29T22:43:33.299Z,14.15
2023-05-29T22:48:35.906Z,14.12
2023-05-29T22:53:37.950Z,14.10
2023-05-29T22:58:39.920Z,14.05
2023-05-29T23:03:42.312Z,14.01
2023-05-29T23:08:45.124Z,13.97
2023-05-29T23:13:46.973Z,13.90
2023-05-29T23:18:49.136Z,13.93
2023-05-29T23:23:51.132Z,13.92
2023-05-29T23:28:53.309Z,13.84
2023-05-29T23:33:55.566Z,13.80
2023-05-29T23:38:57.652Z,13.75
2023-05-29T23:43:59.721Z,13.67
2023-05-29T23:49:02.640Z,13.63
2023-05-29T23:54:04.611Z,13.59
2023-05-29T23:59:07.356Z,13.58
